sensor_id;sensor_type;location;lat;lon;timestamp;P1;durP1;ratioP1;P2;durP2;ratioP2
78732;SDS011;68056;52.530;5.454;2023-05-07T00:01:06;11.77;;;8.90;;
78732;SDS011;68056;52.530;5.454;2023-05-07T00:03:32;11.80;;;8.52;;
78732;SDS011;68056;52.530;5.454;2023-05-07T00:05:58;11.90;;;8.70;;
78732;SDS011;68056;52.530;5.454;2023-05-07T00:08:23;11.07;;;7.70;;
78732;SDS011;68056;52.530;5.454;2023-05-07T00:10:49;9.98;;;7.93;;
78732;SDS011;68056;52.530;5.454;2023-05-07T00:13:15;9.90;;;7.82;;
78732;SDS011;68056;52.530;5.454;2023-05-07T00:15:41;9.82;;;7.65;;
78732;SDS011;68056;52.530;5.454;2023-05-07T00:18:07;9.50;;;7.63;;
78732;SDS011;68056;52.530;5.454;2023-05-07T00:20:32;8.27;;;6.95;;
78732;SDS011;68056;52.530;5.454;2023-05-07T00:23:07;9.27;;;7.07;;
78732;SDS011;68056;52.530;5.454;2023-05-07T00:25:38;10.23;;;7.43;;
78732;SDS011;68056;52.530;5.454;2023-05-07T00:28:04;12.27;;;8.68;;
78732;SDS011;68056;52.530;5.454;2023-05-07T00:30:29;9.70;;;7.63;;
78732;SDS011;68056;52.530;5.454;2023-05-07T00:32:55;9.50;;;7.60;;
78732;SDS011;68056;52.530;5.454;2023-05-07T00:35:20;9.75;;;8.63;;
78732;SDS011;68056;52.530;5.454;2023-05-07T00:37:46;9.93;;;7.20;;
78732;SDS011;68056;52.530;5.454;2023-05-07T00:40:13;7.88;;;6.22;;
78732;SDS011;68056;52.530;5.454;2023-05-07T00:42:39;8.57;;;6.25;;
78732;SDS011;68056;52.530;5.454;2023-05-07T00:45:06;8.40;;;6.65;;
78732;SDS011;68056;52.530;5.454;2023-05-07T00:47:34;7.43;;;6.38;;
78732;SDS011;68056;52.530;5.454;2023-05-07T00:49:59;7.90;;;6.57;;
78732;SDS011;68056;52.530;5.454;2023-05-07T00:52:26;11.63;;;8.00;;
78732;SDS011;68056;52.530;5.454;2023-05-07T00:54:53;7.43;;;6.30;;
78732;SDS011;68056;52.530;5.454;2023-05-07T00:57:20;7.35;;;6.22;;
78732;SDS011;68056;52.530;5.454;2023-05-07T00:59:46;7.07;;;5.97;;
78732;SDS011;68056;52.530;5.454;2023-05-07T01:02:12;8.68;;;6.20;;
78732;SDS011;68056;52.530;5.454;2023-05-07T01:04:37;6.75;;;6.05;;
78732;SDS011;68056;52.530;5.454;2023-05-07T01:07:03;6.82;;;6.22;;
78732;SDS011;68056;52.530;5.454;2023-05-07T01:09:30;7.10;;;6.20;;
78732;SDS011;68056;52.530;5.454;2023-05-07T01:11:56;9.00;;;6.22;;
78732;SDS011;68056;52.530;5.454;2023-05-07T01:14:23;8.13;;;5.75;;
78732;SDS011;68056;52.530;5.454;2023-05-07T01:16:49;6.65;;;5.63;;
78732;SDS011;68056;52.530;5.454;2023-05-07T01:19:16;8.55;;;5.93;;
78732;SDS011;68056;52.530;5.454;2023-05-07T01:21:47;6.90;;;5.75;;
78732;SDS011;68056;52.530;5.454;2023-05-07T01:24:14;6.15;;;5.50;;
78732;SDS011;68056;52.530;5.454;2023-05-07T01:26:40;7.25;;;5.82;;
78732;SDS011;68056;52.530;5.454;2023-05-07T01:29:06;7.75;;;6.75;;
78732;SDS011;68056;52.530;5.454;2023-05-07T01:31:32;8.88;;;6.35;;
78732;SDS011;68056;52.530;5.454;2023-05-07T01:34:00;6.93;;;6.13;;
78732;SDS011;68056;52.530;5.454;2023-05-07T01:36:27;5.13;;;4.68;;
78732;SDS011;68056;52.530;5.454;2023-05-07T01:38:54;7.93;;;5.28;;
78732;SDS011;68056;52.530;5.454;2023-05-07T01:41:22;7.20;;;5.75;;
78732;SDS011;68056;52.530;5.454;2023-05-07T01:43:48;6.78;;;6.10;;
78732;SDS011;68056;52.530;5.454;2023-05-07T01:46:16;6.10;;;5.45;;
78732;SDS011;68056;52.530;5.454;2023-05-07T01:48:43;8.30;;;5.82;;
78732;SDS011;68056;52.530;5.454;2023-05-07T01:51:10;6.43;;;5.13;;
78732;SDS011;68056;52.530;5.454;2023-05-07T01:53:37;8.32;;;7.00;;
78732;SDS011;68056;52.530;5.454;2023-05-07T01:56:03;6.95;;;5.68;;
78732;SDS011;68056;52.530;5.454;2023-05-07T01:58:29;7.35;;;6.40;;
78732;SDS011;68056;52.530;5.454;2023-05-07T02:00:54;8.63;;;6.53;;
78732;SDS011;68056;52.530;5.454;2023-05-07T02:03:20;6.75;;;5.55;;
78732;SDS011;68056;52.530;5.454;2023-05-07T02:05:46;7.10;;;5.65;;
78732;SDS011;68056;52.530;5.454;2023-05-07T02:08:11;9.32;;;5.68;;
78732;SDS011;68056;52.530;5.454;2023-05-07T02:10:37;7.97;;;5.80;;
78732;SDS011;68056;52.530;5.454;2023-05-07T02:13:02;9.43;;;7.78;;
78732;SDS011;68056;52.530;5.454;2023-05-07T02:15:28;8.18;;;6.35;;
78732;SDS011;68056;52.530;5.454;2023-05-07T02:18:07;7.72;;;6.95;;
78732;SDS011;68056;52.530;5.454;2023-05-07T02:20:34;6.57;;;5.90;;
78732;SDS011;68056;52.530;5.454;2023-05-07T02:23:00;7.55;;;5.95;;
78732;SDS011;68056;52.530;5.454;2023-05-07T02:25:25;6.13;;;5.07;;
78732;SDS011;68056;52.530;5.454;2023-05-07T02:27:51;6.85;;;6.15;;
78732;SDS011;68056;52.530;5.454;2023-05-07T02:30:18;8.77;;;5.97;;
78732;SDS011;68056;52.530;5.454;2023-05-07T02:32:46;7.80;;;6.25;;
78732;SDS011;68056;52.530;5.454;2023-05-07T02:35:11;6.65;;;5.85;;
78732;SDS011;68056;52.530;5.454;2023-05-07T02:37:37;5.75;;;5.15;;
78732;SDS011;68056;52.530;5.454;2023-05-07T02:40:02;7.43;;;6.40;;
78732;SDS011;68056;52.530;5.454;2023-05-07T02:42:29;8.73;;;6.28;;
78732;SDS011;68056;52.530;5.454;2023-05-07T02:44:55;7.45;;;6.15;;
78732;SDS011;68056;52.530;5.454;2023-05-07T02:47:20;8.13;;;6.70;;
78732;SDS011;68056;52.530;5.454;2023-05-07T02:49:46;7.40;;;6.35;;
78732;SDS011;68056;52.530;5.454;2023-05-07T02:52:12;7.63;;;6.55;;
78732;SDS011;68056;52.530;5.454;2023-05-07T02:54:38;6.00;;;5.32;;
78732;SDS011;68056;52.530;5.454;2023-05-07T02:57:03;5.65;;;5.13;;
78732;SDS011;68056;52.530;5.454;2023-05-07T02:59:29;9.55;;;6.97;;
78732;SDS011;68056;52.530;5.454;2023-05-07T03:01:54;8.15;;;7.35;;
78732;SDS011;68056;52.530;5.454;2023-05-07T03:04:20;6.00;;;5.38;;
78732;SDS011;68056;52.530;5.454;2023-05-07T03:06:46;6.95;;;5.90;;
78732;SDS011;68056;52.530;5.454;2023-05-07T03:09:11;8.85;;;6.78;;
78732;SDS011;68056;52.530;5.454;2023-05-07T03:11:37;7.53;;;5.47;;
78732;SDS011;68056;52.530;5.454;2023-05-07T03:14:02;7.97;;;6.50;;
78732;SDS011;68056;52.530;5.454;2023-05-07T03:16:28;8.82;;;6.03;;
78732;SDS011;68056;52.530;5.454;2023-05-07T03:18:53;8.40;;;6.28;;
78732;SDS011;68056;52.530;5.454;2023-05-07T03:21:19;7.72;;;5.90;;
78732;SDS011;68056;52.530;5.454;2023-05-07T03:23:45;9.27;;;6.40;;
78732;SDS011;68056;52.530;5.454;2023-05-07T03:26:10;8.85;;;7.68;;
78732;SDS011;68056;52.530;5.454;2023-05-07T03:28:36;7.68;;;6.88;;
78732;SDS011;68056;52.530;5.454;2023-05-07T03:31:02;10.60;;;7.80;;
78732;SDS011;68056;52.530;5.454;2023-05-07T03:33:27;7.45;;;6.72;;
78732;SDS011;68056;52.530;5.454;2023-05-07T03:35:53;7.10;;;5.78;;
78732;SDS011;68056;52.530;5.454;2023-05-07T03:38:19;7.60;;;6.22;;
78732;SDS011;68056;52.530;5.454;2023-05-07T03:40:45;7.85;;;7.05;;
78732;SDS011;68056;52.530;5.454;2023-05-07T03:43:11;8.77;;;7.40;;
78732;SDS011;68056;52.530;5.454;2023-05-07T03:45:36;8.10;;;6.75;;
78732;SDS011;68056;52.530;5.454;2023-05-07T03:48:02;10.15;;;7.25;;
78732;SDS011;68056;52.530;5.454;2023-05-07T03:50:28;7.35;;;6.70;;
78732;SDS011;68056;52.530;5.454;2023-05-07T03:52:53;8.02;;;7.05;;
78732;SDS011;68056;52.530;5.454;2023-05-07T03:55:19;9.77;;;7.43;;
78732;SDS011;68056;52.530;5.454;2023-05-07T03:57:44;7.60;;;6.15;;
78732;SDS011;68056;52.530;5.454;2023-05-07T04:00:10;9.30;;;6.30;;
78732;SDS011;68056;52.530;5.454;2023-05-07T04:02:36;7.82;;;7.03;;
78732;SDS011;68056;52.530;5.454;2023-05-07T04:05:02;7.38;;;6.53;;
78732;SDS011;68056;52.530;5.454;2023-05-07T04:07:27;10.35;;;7.80;;
78732;SDS011;68056;52.530;5.454;2023-05-07T04:09:53;9.82;;;7.22;;
78732;SDS011;68056;52.530;5.454;2023-05-07T04:12:19;10.07;;;7.45;;
78732;SDS011;68056;52.530;5.454;2023-05-07T04:14:44;7.32;;;6.47;;
78732;SDS011;68056;52.530;5.454;2023-05-07T04:17:10;9.30;;;8.05;;
78732;SDS011;68056;52.530;5.454;2023-05-07T04:19:35;8.57;;;7.78;;
78732;SDS011;68056;52.530;5.454;2023-05-07T04:22:01;13.07;;;10.35;;
78732;SDS011;68056;52.530;5.454;2023-05-07T04:24:30;8.13;;;7.18;;
78732;SDS011;68056;52.530;5.454;2023-05-07T04:26:58;12.05;;;8.85;;
78732;SDS011;68056;52.530;5.454;2023-05-07T04:29:24;11.82;;;9.05;;
78732;SDS011;68056;52.530;5.454;2023-05-07T04:31:50;13.73;;;10.45;;
78732;SDS011;68056;52.530;5.454;2023-05-07T04:34:16;12.63;;;9.77;;
78732;SDS011;68056;52.530;5.454;2023-05-07T04:36:42;13.00;;;11.18;;
78732;SDS011;68056;52.530;5.454;2023-05-07T04:39:08;20.00;;;12.45;;
78732;SDS011;68056;52.530;5.454;2023-05-07T04:41:35;14.85;;;11.07;;
78732;SDS011;68056;52.530;5.454;2023-05-07T04:44:01;12.82;;;11.45;;
78732;SDS011;68056;52.530;5.454;2023-05-07T04:46:28;14.82;;;11.23;;
78732;SDS011;68056;52.530;5.454;2023-05-07T04:48:54;14.82;;;12.85;;
78732;SDS011;68056;52.530;5.454;2023-05-07T04:51:20;20.85;;;13.52;;
78732;SDS011;68056;52.530;5.454;2023-05-07T04:53:45;19.25;;;13.27;;
78732;SDS011;68056;52.530;5.454;2023-05-07T04:56:11;20.92;;;14.93;;
78732;SDS011;68056;52.530;5.454;2023-05-07T04:58:36;22.00;;;15.35;;
78732;SDS011;68056;52.530;5.454;2023-05-07T05:01:02;17.55;;;13.05;;
78732;SDS011;68056;52.530;5.454;2023-05-07T05:03:27;17.15;;;13.45;;
78732;SDS011;68056;52.530;5.454;2023-05-07T05:05:53;22.65;;;15.60;;
78732;SDS011;68056;52.530;5.454;2023-05-07T05:08:19;18.20;;;14.60;;
78732;SDS011;68056;52.530;5.454;2023-05-07T05:10:44;20.27;;;15.27;;
78732;SDS011;68056;52.530;5.454;2023-05-07T05:13:10;19.75;;;14.80;;
78732;SDS011;68056;52.530;5.454;2023-05-07T05:15:38;19.48;;;15.68;;
78732;SDS011;68056;52.530;5.454;2023-05-07T05:18:03;19.42;;;14.18;;
78732;SDS011;68056;52.530;5.454;2023-05-07T05:20:29;18.20;;;14.50;;
78732;SDS011;68056;52.530;5.454;2023-05-07T05:22:55;17.90;;;15.52;;
78732;SDS011;68056;52.530;5.454;2023-05-07T05:25:21;16.05;;;12.75;;
78732;SDS011;68056;52.530;5.454;2023-05-07T05:27:46;18.35;;;14.43;;
78732;SDS011;68056;52.530;5.454;2023-05-07T05:30:12;19.13;;;14.38;;
78732;SDS011;68056;52.530;5.454;2023-05-07T05:32:38;17.05;;;13.32;;
78732;SDS011;68056;52.530;5.454;2023-05-07T05:35:04;19.25;;;16.10;;
78732;SDS011;68056;52.530;5.454;2023-05-07T05:37:30;15.48;;;11.52;;
78732;SDS011;68056;52.530;5.454;2023-05-07T05:39:56;18.67;;;13.80;;
78732;SDS011;68056;52.530;5.454;2023-05-07T05:42:22;16.17;;;11.45;;
78732;SDS011;68056;52.530;5.454;2023-05-07T05:44:49;16.50;;;12.48;;
78732;SDS011;68056;52.530;5.454;2023-05-07T05:47:15;17.25;;;12.10;;
78732;SDS011;68056;52.530;5.454;2023-05-07T05:49:40;18.40;;;12.02;;
78732;SDS011;68056;52.530;5.454;2023-05-07T05:54:33;18.90;;;12.40;;
78732;SDS011;68056;52.530;5.454;2023-05-07T05:56:59;14.75;;;11.23;;
78732;SDS011;68056;52.530;5.454;2023-05-07T05:59:25;18.30;;;13.82;;
78732;SDS011;68056;52.530;5.454;2023-05-07T06:01:50;13.43;;;10.65;;
78732;SDS011;68056;52.530;5.454;2023-05-07T06:04:16;18.38;;;11.32;;
78732;SDS011;68056;52.530;5.454;2023-05-07T06:06:42;16.35;;;12.20;;
78732;SDS011;68056;52.530;5.454;2023-05-07T06:09:07;21.92;;;12.95;;
78732;SDS011;68056;52.530;5.454;2023-05-07T06:11:33;17.40;;;13.00;;
78732;SDS011;68056;52.530;5.454;2023-05-07T06:13:58;17.35;;;11.80;;
78732;SDS011;68056;52.530;5.454;2023-05-07T06:16:24;15.68;;;12.10;;
78732;SDS011;68056;52.530;5.454;2023-05-07T06:18:50;19.35;;;12.95;;
78732;SDS011;68056;52.530;5.454;2023-05-07T06:21:15;18.52;;;13.68;;
78732;SDS011;68056;52.530;5.454;2023-05-07T06:23:41;16.40;;;11.98;;
78732;SDS011;68056;52.530;5.454;2023-05-07T06:26:07;19.23;;;13.57;;
78732;SDS011;68056;52.530;5.454;2023-05-07T06:28:32;18.70;;;13.75;;
78732;SDS011;68056;52.530;5.454;2023-05-07T06:31:19;19.42;;;13.00;;
78732;SDS011;68056;52.530;5.454;2023-05-07T06:33:45;18.77;;;12.68;;
78732;SDS011;68056;52.530;5.454;2023-05-07T06:36:11;20.65;;;13.93;;
78732;SDS011;68056;52.530;5.454;2023-05-07T06:38:37;18.90;;;14.63;;
78732;SDS011;68056;52.530;5.454;2023-05-07T06:41:02;17.75;;;13.40;;
78732;SDS011;68056;52.530;5.454;2023-05-07T06:43:28;17.25;;;12.80;;
78732;SDS011;68056;52.530;5.454;2023-05-07T06:45:53;17.05;;;12.57;;
78732;SDS011;68056;52.530;5.454;2023-05-07T06:48:19;19.27;;;14.60;;
78732;SDS011;68056;52.530;5.454;2023-05-07T06:50:45;18.05;;;13.02;;
78732;SDS011;68056;52.530;5.454;2023-05-07T06:53:10;22.00;;;13.73;;
78732;SDS011;68056;52.530;5.454;2023-05-07T06:55:36;19.17;;;14.25;;
78732;SDS011;68056;52.530;5.454;2023-05-07T06:58:03;16.80;;;12.75;;
78732;SDS011;68056;52.530;5.454;2023-05-07T07:00:28;22.38;;;15.25;;
78732;SDS011;68056;52.530;5.454;2023-05-07T07:02:54;19.38;;;14.30;;
78732;SDS011;68056;52.530;5.454;2023-05-07T07:05:20;18.73;;;12.60;;
78732;SDS011;68056;52.530;5.454;2023-05-07T07:07:46;19.00;;;13.93;;
78732;SDS011;68056;52.530;5.454;2023-05-07T07:10:20;20.10;;;14.35;;
78732;SDS011;68056;52.530;5.454;2023-05-07T07:12:46;18.85;;;13.20;;
78732;SDS011;68056;52.530;5.454;2023-05-07T07:15:15;21.00;;;15.07;;
78732;SDS011;68056;52.530;5.454;2023-05-07T07:17:41;17.63;;;13.13;;
78732;SDS011;68056;52.530;5.454;2023-05-07T07:20:08;17.25;;;12.73;;
78732;SDS011;68056;52.530;5.454;2023-05-07T07:22:37;18.50;;;13.75;;
78732;SDS011;68056;52.530;5.454;2023-05-07T07:25:04;19.30;;;15.30;;
78732;SDS011;68056;52.530;5.454;2023-05-07T07:27:30;26.15;;;14.98;;
78732;SDS011;68056;52.530;5.454;2023-05-07T07:29:55;20.88;;;15.07;;
78732;SDS011;68056;52.530;5.454;2023-05-07T07:32:21;19.20;;;13.13;;
78732;SDS011;68056;52.530;5.454;2023-05-07T07:34:46;17.63;;;12.75;;
78732;SDS011;68056;52.530;5.454;2023-05-07T07:37:12;18.73;;;12.98;;
78732;SDS011;68056;52.530;5.454;2023-05-07T07:39:37;19.10;;;13.45;;
78732;SDS011;68056;52.530;5.454;2023-05-07T07:42:04;15.20;;;12.80;;
78732;SDS011;68056;52.530;5.454;2023-05-07T07:44:30;16.73;;;13.73;;
78732;SDS011;68056;52.530;5.454;2023-05-07T07:46:55;18.65;;;14.23;;
78732;SDS011;68056;52.530;5.454;2023-05-07T07:49:21;20.42;;;14.63;;
78732;SDS011;68056;52.530;5.454;2023-05-07T07:51:47;15.32;;;12.90;;
78732;SDS011;68056;52.530;5.454;2023-05-07T07:54:12;14.50;;;11.88;;
78732;SDS011;68056;52.530;5.454;2023-05-07T07:56:38;19.63;;;14.32;;
78732;SDS011;68056;52.530;5.454;2023-05-07T07:59:03;17.73;;;13.98;;
78732;SDS011;68056;52.530;5.454;2023-05-07T08:01:29;20.10;;;14.90;;
78732;SDS011;68056;52.530;5.454;2023-05-07T08:03:55;19.08;;;14.30;;
78732;SDS011;68056;52.530;5.454;2023-05-07T08:06:23;19.00;;;13.38;;
78732;SDS011;68056;52.530;5.454;2023-05-07T08:08:50;18.42;;;13.32;;
78732;SDS011;68056;52.530;5.454;2023-05-07T08:11:16;18.35;;;14.82;;
78732;SDS011;68056;52.530;5.454;2023-05-07T08:13:42;18.08;;;14.07;;
78732;SDS011;68056;52.530;5.454;2023-05-07T08:16:08;16.90;;;13.77;;
78732;SDS011;68056;52.530;5.454;2023-05-07T08:18:34;16.67;;;11.70;;
78732;SDS011;68056;52.530;5.454;2023-05-07T08:21:00;17.30;;;13.07;;
78732;SDS011;68056;52.530;5.454;2023-05-07T08:23:26;16.70;;;12.48;;
78732;SDS011;68056;52.530;5.454;2023-05-07T08:25:51;17.95;;;14.32;;
78732;SDS011;68056;52.530;5.454;2023-05-07T08:28:17;19.25;;;15.40;;
78732;SDS011;68056;52.530;5.454;2023-05-07T08:30:44;18.90;;;12.95;;
78732;SDS011;68056;52.530;5.454;2023-05-07T08:33:09;16.73;;;11.27;;
78732;SDS011;68056;52.530;5.454;2023-05-07T08:35:35;17.35;;;13.40;;
78732;SDS011;68056;52.530;5.454;2023-05-07T08:38:04;18.45;;;11.77;;
78732;SDS011;68056;52.530;5.454;2023-05-07T08:40:30;12.48;;;10.98;;
78732;SDS011;68056;52.530;5.454;2023-05-07T08:43:01;16.85;;;12.07;;
78732;SDS011;68056;52.530;5.454;2023-05-07T08:45:27;15.15;;;11.98;;
78732;SDS011;68056;52.530;5.454;2023-05-07T08:47:58;13.90;;;11.93;;
78732;SDS011;68056;52.530;5.454;2023-05-07T08:50:25;19.42;;;11.70;;
78732;SDS011;68056;52.530;5.454;2023-05-07T08:52:51;12.32;;;10.90;;
78732;SDS011;68056;52.530;5.454;2023-05-07T08:55:16;16.50;;;12.05;;
78732;SDS011;68056;52.530;5.454;2023-05-07T08:57:43;15.63;;;12.25;;
78732;SDS011;68056;52.530;5.454;2023-05-07T09:00:09;16.02;;;11.55;;
78732;SDS011;68056;52.530;5.454;2023-05-07T09:02:35;15.65;;;12.35;;
78732;SDS011;68056;52.530;5.454;2023-05-07T09:05:02;14.65;;;12.93;;
78732;SDS011;68056;52.530;5.454;2023-05-07T09:07:27;15.45;;;12.30;;
78732;SDS011;68056;52.530;5.454;2023-05-07T09:09:58;14.90;;;11.23;;
78732;SDS011;68056;52.530;5.454;2023-05-07T09:12:26;13.63;;;11.43;;
78732;SDS011;68056;52.530;5.454;2023-05-07T09:14:51;13.90;;;11.65;;
78732;SDS011;68056;52.530;5.454;2023-05-07T09:17:17;13.73;;;11.60;;
78732;SDS011;68056;52.530;5.454;2023-05-07T09:19:43;15.95;;;12.90;;
78732;SDS011;68056;52.530;5.454;2023-05-07T09:22:10;15.32;;;11.57;;
78732;SDS011;68056;52.530;5.454;2023-05-07T09:24:36;14.25;;;12.35;;
78732;SDS011;68056;52.530;5.454;2023-05-07T09:27:02;14.48;;;12.23;;
78732;SDS011;68056;52.530;5.454;2023-05-07T09:29:29;16.05;;;11.98;;
78732;SDS011;68056;52.530;5.454;2023-05-07T09:32:05;15.45;;;11.23;;
78732;SDS011;68056;52.530;5.454;2023-05-07T09:34:32;12.23;;;10.52;;
78732;SDS011;68056;52.530;5.454;2023-05-07T09:37:00;14.23;;;11.27;;
78732;SDS011;68056;52.530;5.454;2023-05-07T09:39:26;11.85;;;10.23;;
78732;SDS011;68056;52.530;5.454;2023-05-07T09:42:04;14.38;;;11.63;;
78732;SDS011;68056;52.530;5.454;2023-05-07T09:44:33;13.85;;;10.90;;
78732;SDS011;68056;52.530;5.454;2023-05-07T09:46:59;13.20;;;11.57;;
78732;SDS011;68056;52.530;5.454;2023-05-07T09:49:27;12.52;;;10.52;;
78732;SDS011;68056;52.530;5.454;2023-05-07T09:51:54;12.27;;;10.15;;
78732;SDS011;68056;52.530;5.454;2023-05-07T09:54:22;14.95;;;12.20;;
78732;SDS011;68056;52.530;5.454;2023-05-07T09:56:48;12.98;;;11.25;;
78732;SDS011;68056;52.530;5.454;2023-05-07T09:59:14;14.05;;;11.15;;
78732;SDS011;68056;52.530;5.454;2023-05-07T10:01:43;15.63;;;11.95;;
78732;SDS011;68056;52.530;5.454;2023-05-07T10:04:10;12.93;;;9.85;;
78732;SDS011;68056;52.530;5.454;2023-05-07T10:06:36;15.15;;;12.45;;
78732;SDS011;68056;52.530;5.454;2023-05-07T10:09:03;12.88;;;10.60;;
78732;SDS011;68056;52.530;5.454;2023-05-07T10:11:33;11.65;;;10.40;;
78732;SDS011;68056;52.530;5.454;2023-05-07T10:14:00;13.15;;;10.77;;
78732;SDS011;68056;52.530;5.454;2023-05-07T10:16:27;13.45;;;10.52;;
78732;SDS011;68056;52.530;5.454;2023-05-07T10:18:57;13.10;;;10.95;;
78732;SDS011;68056;52.530;5.454;2023-05-07T10:21:24;13.48;;;10.15;;
78732;SDS011;68056;52.530;5.454;2023-05-07T10:23:59;12.48;;;9.57;;
78732;SDS011;68056;52.530;5.454;2023-05-07T10:26:31;12.75;;;9.82;;
78732;SDS011;68056;52.530;5.454;2023-05-07T10:28:59;13.68;;;10.43;;
78732;SDS011;68056;52.530;5.454;2023-05-07T10:34:44;12.95;;;9.85;;
78732;SDS011;68056;52.530;5.454;2023-05-07T10:37:12;12.27;;;9.55;;
78732;SDS011;68056;52.530;5.454;2023-05-07T10:39:38;12.50;;;10.00;;
78732;SDS011;68056;52.530;5.454;2023-05-07T10:42:11;12.65;;;9.75;;
78732;SDS011;68056;52.530;5.454;2023-05-07T10:44:41;11.05;;;9.88;;
78732;SDS011;68056;52.530;5.454;2023-05-07T10:47:07;11.90;;;10.32;;
78732;SDS011;68056;52.530;5.454;2023-05-07T10:49:35;9.75;;;8.48;;
78732;SDS011;68056;52.530;5.454;2023-05-07T10:57:40;11.98;;;9.82;;
78732;SDS011;68056;52.530;5.454;2023-05-07T11:05:29;13.55;;;11.57;;
78732;SDS011;68056;52.530;5.454;2023-05-07T11:07:57;14.52;;;10.88;;
78732;SDS011;68056;52.530;5.454;2023-05-07T11:10:47;11.85;;;8.88;;
78732;SDS011;68056;52.530;5.454;2023-05-07T11:13:16;12.35;;;10.10;;
78732;SDS011;68056;52.530;5.454;2023-05-07T11:18:11;11.25;;;10.15;;
78732;SDS011;68056;52.530;5.454;2023-05-07T11:20:56;11.35;;;9.82;;
78732;SDS011;68056;52.530;5.454;2023-05-07T11:26:06;8.50;;;7.60;;
78732;SDS011;68056;52.530;5.454;2023-05-07T11:28:36;8.70;;;7.32;;
78732;SDS011;68056;52.530;5.454;2023-05-07T11:31:04;9.95;;;6.75;;
78732;SDS011;68056;52.530;5.454;2023-05-07T11:33:30;6.78;;;6.13;;
78732;SDS011;68056;52.530;5.454;2023-05-07T11:35:56;8.25;;;5.38;;
78732;SDS011;68056;52.530;5.454;2023-05-07T11:38:22;8.98;;;6.45;;
78732;SDS011;68056;52.530;5.454;2023-05-07T11:40:52;7.32;;;6.10;;
78732;SDS011;68056;52.530;5.454;2023-05-07T11:43:20;8.93;;;7.07;;
78732;SDS011;68056;52.530;5.454;2023-05-07T11:45:46;8.57;;;6.97;;
78732;SDS011;68056;52.530;5.454;2023-05-07T11:48:13;8.40;;;6.20;;
78732;SDS011;68056;52.530;5.454;2023-05-07T11:53:27;11.13;;;5.43;;
78732;SDS011;68056;52.530;5.454;2023-05-07T11:58:35;7.60;;;6.03;;
78732;SDS011;68056;52.530;5.454;2023-05-07T12:01:01;6.97;;;6.28;;
78732;SDS011;68056;52.530;5.454;2023-05-07T12:03:26;8.07;;;6.85;;
78732;SDS011;68056;52.530;5.454;2023-05-07T12:05:52;8.70;;;6.38;;
78732;SDS011;68056;52.530;5.454;2023-05-07T12:08:19;6.95;;;6.28;;
78732;SDS011;68056;52.530;5.454;2023-05-07T12:10:49;7.88;;;6.32;;
78732;SDS011;68056;52.530;5.454;2023-05-07T12:13:20;9.43;;;7.53;;
78732;SDS011;68056;52.530;5.454;2023-05-07T12:15:54;7.97;;;6.43;;
78732;SDS011;68056;52.530;5.454;2023-05-07T12:18:21;7.03;;;6.32;;
78732;SDS011;68056;52.530;5.454;2023-05-07T12:20:48;8.60;;;7.13;;
78732;SDS011;68056;52.530;5.454;2023-05-07T12:23:14;8.95;;;7.35;;
78732;SDS011;68056;52.530;5.454;2023-05-07T12:25:41;8.85;;;6.85;;
78732;SDS011;68056;52.530;5.454;2023-05-07T12:28:14;6.57;;;5.22;;
78732;SDS011;68056;52.530;5.454;2023-05-07T12:30:45;7.43;;;5.50;;
78732;SDS011;68056;52.530;5.454;2023-05-07T12:33:12;8.35;;;6.60;;
78732;SDS011;68056;52.530;5.454;2023-05-07T12:35:42;7.57;;;5.38;;
78732;SDS011;68056;52.530;5.454;2023-05-07T12:38:11;9.00;;;6.43;;
78732;SDS011;68056;52.530;5.454;2023-05-07T12:40:41;7.57;;;6.68;;
78732;SDS011;68056;52.530;5.454;2023-05-07T12:43:18;7.60;;;6.07;;
78732;SDS011;68056;52.530;5.454;2023-05-07T12:45:48;6.50;;;4.97;;
78732;SDS011;68056;52.530;5.454;2023-05-07T12:48:15;8.73;;;6.45;;
78732;SDS011;68056;52.530;5.454;2023-05-07T12:50:42;7.05;;;5.28;;
78732;SDS011;68056;52.530;5.454;2023-05-07T12:53:09;8.50;;;6.70;;
78732;SDS011;68056;52.530;5.454;2023-05-07T12:55:41;8.43;;;6.72;;
78732;SDS011;68056;52.530;5.454;2023-05-07T12:58:07;8.15;;;6.43;;
78732;SDS011;68056;52.530;5.454;2023-05-07T13:00:36;7.97;;;7.03;;
78732;SDS011;68056;52.530;5.454;2023-05-07T13:03:03;8.80;;;6.68;;
78732;SDS011;68056;52.530;5.454;2023-05-07T13:05:28;6.60;;;5.07;;
78732;SDS011;68056;52.530;5.454;2023-05-07T13:07:55;6.70;;;4.85;;
78732;SDS011;68056;52.530;5.454;2023-05-07T13:10:21;5.80;;;4.75;;
78732;SDS011;68056;52.530;5.454;2023-05-07T13:15:14;4.53;;;3.67;;
78732;SDS011;68056;52.530;5.454;2023-05-07T13:17:39;3.88;;;2.90;;
78732;SDS011;68056;52.530;5.454;2023-05-07T13:20:05;5.32;;;3.80;;
78732;SDS011;68056;52.530;5.454;2023-05-07T13:22:31;5.55;;;4.15;;
78732;SDS011;68056;52.530;5.454;2023-05-07T13:24:57;9.45;;;5.90;;
78732;SDS011;68056;52.530;5.454;2023-05-07T13:27:22;8.77;;;7.00;;
78732;SDS011;68056;52.530;5.454;2023-05-07T13:29:48;10.55;;;7.40;;
78732;SDS011;68056;52.530;5.454;2023-05-07T13:32:13;9.82;;;6.90;;
78732;SDS011;68056;52.530;5.454;2023-05-07T13:34:39;8.32;;;6.55;;
78732;SDS011;68056;52.530;5.454;2023-05-07T13:37:04;9.02;;;6.60;;
78732;SDS011;68056;52.530;5.454;2023-05-07T13:39:32;8.77;;;7.10;;
78732;SDS011;68056;52.530;5.454;2023-05-07T13:41:58;11.18;;;7.72;;
78732;SDS011;68056;52.530;5.454;2023-05-07T13:44:24;8.27;;;6.32;;
78732;SDS011;68056;52.530;5.454;2023-05-07T13:46:49;10.15;;;7.68;;
78732;SDS011;68056;52.530;5.454;2023-05-07T13:49:15;9.52;;;7.15;;
78732;SDS011;68056;52.530;5.454;2023-05-07T13:51:40;9.20;;;6.80;;
78732;SDS011;68056;52.530;5.454;2023-05-07T13:54:06;9.75;;;7.63;;
78732;SDS011;68056;52.530;5.454;2023-05-07T13:56:32;11.07;;;8.25;;
78732;SDS011;68056;52.530;5.454;2023-05-07T13:58:58;9.30;;;6.80;;
78732;SDS011;68056;52.530;5.454;2023-05-07T14:01:23;8.65;;;7.15;;
78732;SDS011;68056;52.530;5.454;2023-05-07T14:03:49;9.30;;;7.70;;
78732;SDS011;68056;52.530;5.454;2023-05-07T14:06:14;11.38;;;8.30;;
78732;SDS011;68056;52.530;5.454;2023-05-07T14:08:40;11.20;;;8.30;;
78732;SDS011;68056;52.530;5.454;2023-05-07T14:11:06;11.57;;;8.85;;
78732;SDS011;68056;52.530;5.454;2023-05-07T14:13:31;11.02;;;8.68;;
78732;SDS011;68056;52.530;5.454;2023-05-07T14:15:57;11.52;;;8.15;;
78732;SDS011;68056;52.530;5.454;2023-05-07T14:18:23;12.60;;;8.45;;
78732;SDS011;68056;52.530;5.454;2023-05-07T14:20:48;11.57;;;7.97;;
78732;SDS011;68056;52.530;5.454;2023-05-07T14:23:14;13.57;;;9.68;;
78732;SDS011;68056;52.530;5.454;2023-05-07T14:25:41;12.05;;;8.45;;
78732;SDS011;68056;52.530;5.454;2023-05-07T14:28:08;11.23;;;8.30;;
78732;SDS011;68056;52.530;5.454;2023-05-07T14:30:34;9.93;;;7.63;;
78732;SDS011;68056;52.530;5.454;2023-05-07T14:33:00;9.18;;;7.78;;
78732;SDS011;68056;52.530;5.454;2023-05-07T14:35:25;9.30;;;7.30;;
78732;SDS011;68056;52.530;5.454;2023-05-07T14:37:51;12.02;;;7.47;;
78732;SDS011;68056;52.530;5.454;2023-05-07T14:40:16;10.23;;;7.50;;
78732;SDS011;68056;52.530;5.454;2023-05-07T14:42:42;10.43;;;8.82;;
78732;SDS011;68056;52.530;5.454;2023-05-07T14:45:08;9.05;;;7.43;;
78732;SDS011;68056;52.530;5.454;2023-05-07T14:47:34;9.13;;;6.97;;
78732;SDS011;68056;52.530;5.454;2023-05-07T14:50:01;10.90;;;8.80;;
78732;SDS011;68056;52.530;5.454;2023-05-07T14:52:26;10.60;;;8.13;;
78732;SDS011;68056;52.530;5.454;2023-05-07T14:54:52;11.85;;;8.90;;
78732;SDS011;68056;52.530;5.454;2023-05-07T14:57:17;11.88;;;8.63;;
78732;SDS011;68056;52.530;5.454;2023-05-07T15:02:12;12.88;;;8.50;;
78732;SDS011;68056;52.530;5.454;2023-05-07T15:04:38;11.07;;;8.88;;